sensor_id;sensor_type;location;lat;lon;timestamp;P1;durP1;ratioP1;P2;durP2;ratioP2
6344;SDS011;3205;42.666;23.264;2024-02-04T00:00:50;6.13;;;3.40;;
6344;SDS011;3205;42.666;23.264;2024-02-04T00:03:17;4.50;;;2.97;;
6344;SDS011;3205;42.666;23.264;2024-02-04T00:05:44;5.40;;;3.07;;
6344;SDS011;3205;42.666;23.264;2024-02-04T00:08:10;5.60;;;3.27;;
6344;SDS011;3205;42.666;23.264;2024-02-04T00:10:41;4.70;;;3.40;;
6344;SDS011;3205;42.666;23.264;2024-02-04T00:13:08;5.43;;;3.17;;
6344;SDS011;3205;42.666;23.264;2024-02-04T00:15:34;4.73;;;3.23;;
6344;SDS011;3205;42.666;23.264;2024-02-04T00:18:00;5.93;;;3.53;;
6344;SDS011;3205;42.666;23.264;2024-02-04T00:20:27;7.23;;;4.13;;
6344;SDS011;3205;42.666;23.264;2024-02-04T00:22:54;6.60;;;3.90;;
6344;SDS011;3205;42.666;23.264;2024-02-04T00:25:20;7.90;;;3.67;;
6344;SDS011;3205;42.666;23.264;2024-02-04T00:27:47;5.17;;;3.50;;
6344;SDS011;3205;42.666;23.264;2024-02-04T00:30:13;4.50;;;3.30;;
6344;SDS011;3205;42.666;23.264;2024-02-04T00:32:39;4.87;;;3.37;;
6344;SDS011;3205;42.666;23.264;2024-02-04T00:35:06;3.63;;;3.33;;
6344;SDS011;3205;42.666;23.264;2024-02-04T00:37:33;6.27;;;3.60;;
6344;SDS011;3205;42.666;23.264;2024-02-04T00:39:59;7.67;;;3.40;;
6344;SDS011;3205;42.666;23.264;2024-02-04T00:42:25;5.23;;;3.10;;
6344;SDS011;3205;42.666;23.264;2024-02-04T00:44:52;3.87;;;3.23;;
6344;SDS011;3205;42.666;23.264;2024-02-04T00:47:18;7.77;;;4.43;;
6344;SDS011;3205;42.666;23.264;2024-02-04T00:49:44;5.63;;;3.37;;
6344;SDS011;3205;42.666;23.264;2024-02-04T00:52:10;6.33;;;3.43;;
6344;SDS011;3205;42.666;23.264;2024-02-04T00:54:37;4.13;;;3.30;;
6344;SDS011;3205;42.666;23.264;2024-02-04T00:57:04;4.40;;;3.07;;
6344;SDS011;3205;42.666;23.264;2024-02-04T00:59:30;7.27;;;3.40;;
6344;SDS011;3205;42.666;23.264;2024-02-04T01:01:56;7.13;;;3.70;;
6344;SDS011;3205;42.666;23.264;2024-02-04T01:04:24;6.33;;;3.47;;
6344;SDS011;3205;42.666;23.264;2024-02-04T01:06:50;6.87;;;3.33;;
6344;SDS011;3205;42.666;23.264;2024-02-04T01:09:16;6.93;;;3.73;;
6344;SDS011;3205;42.666;23.264;2024-02-04T01:11:43;5.33;;;3.30;;
6344;SDS011;3205;42.666;23.264;2024-02-04T01:14:09;4.50;;;3.33;;
6344;SDS011;3205;42.666;23.264;2024-02-04T01:16:36;8.43;;;3.63;;
6344;SDS011;3205;42.666;23.264;2024-02-04T01:19:02;5.13;;;3.83;;
6344;SDS011;3205;42.666;23.264;2024-02-04T01:21:28;5.87;;;3.63;;
6344;SDS011;3205;42.666;23.264;2024-02-04T01:23:55;6.50;;;2.97;;
6344;SDS011;3205;42.666;23.264;2024-02-04T01:26:21;3.27;;;2.93;;
6344;SDS011;3205;42.666;23.264;2024-02-04T01:28:50;3.50;;;2.90;;
6344;SDS011;3205;42.666;23.264;2024-02-04T01:31:16;4.17;;;3.20;;
6344;SDS011;3205;42.666;23.264;2024-02-04T01:33:42;4.17;;;3.13;;
6344;SDS011;3205;42.666;23.264;2024-02-04T01:36:08;6.67;;;3.37;;
6344;SDS011;3205;42.666;23.264;2024-02-04T01:38:35;4.70;;;2.70;;
6344;SDS011;3205;42.666;23.264;2024-02-04T01:41:01;4.63;;;2.87;;
6344;SDS011;3205;42.666;23.264;2024-02-04T01:43:27;5.00;;;3.10;;
6344;SDS011;3205;42.666;23.264;2024-02-04T01:45:55;7.23;;;3.17;;
6344;SDS011;3205;42.666;23.264;2024-02-04T01:48:22;9.50;;;3.10;;
6344;SDS011;3205;42.666;23.264;2024-02-04T01:50:48;5.00;;;3.30;;
6344;SDS011;3205;42.666;23.264;2024-02-04T01:53:18;4.57;;;2.90;;
6344;SDS011;3205;42.666;23.264;2024-02-04T01:55:47;4.03;;;2.93;;
6344;SDS011;3205;42.666;23.264;2024-02-04T01:58:14;6.60;;;3.30;;
6344;SDS011;3205;42.666;23.264;2024-02-04T02:00:40;4.70;;;3.00;;
6344;SDS011;3205;42.666;23.264;2024-02-04T02:03:08;3.20;;;2.60;;
6344;SDS011;3205;42.666;23.264;2024-02-04T02:05:39;4.53;;;3.00;;
6344;SDS011;3205;42.666;23.264;2024-02-04T02:08:06;6.97;;;2.83;;
6344;SDS011;3205;42.666;23.264;2024-02-04T02:10:32;3.03;;;2.63;;
6344;SDS011;3205;42.666;23.264;2024-02-04T02:12:59;3.97;;;3.30;;
6344;SDS011;3205;42.666;23.264;2024-02-04T02:15:30;4.97;;;2.90;;
6344;SDS011;3205;42.666;23.264;2024-02-04T02:18:02;5.07;;;2.93;;
6344;SDS011;3205;42.666;23.264;2024-02-04T02:20:35;5.53;;;2.90;;
6344;SDS011;3205;42.666;23.264;2024-02-04T02:23:08;3.77;;;3.00;;
6344;SDS011;3205;42.666;23.264;2024-02-04T02:25:38;7.50;;;2.97;;
6344;SDS011;3205;42.666;23.264;2024-02-04T02:28:06;6.13;;;3.90;;
6344;SDS011;3205;42.666;23.264;2024-02-04T02:30:33;6.63;;;3.50;;
6344;SDS011;3205;42.666;23.264;2024-02-04T02:32:59;3.73;;;3.00;;
6344;SDS011;3205;42.666;23.264;2024-02-04T02:35:25;7.40;;;3.20;;
6344;SDS011;3205;42.666;23.264;2024-02-04T02:37:53;4.57;;;3.40;;
6344;SDS011;3205;42.666;23.264;2024-02-04T02:40:26;5.10;;;3.47;;
6344;SDS011;3205;42.666;23.264;2024-02-04T02:42:56;4.60;;;2.83;;
6344;SDS011;3205;42.666;23.264;2024-02-04T02:45:25;5.03;;;3.23;;
6344;SDS011;3205;42.666;23.264;2024-02-04T02:47:53;4.40;;;3.47;;
6344;SDS011;3205;42.666;23.264;2024-02-04T02:50:20;5.10;;;3.13;;
6344;SDS011;3205;42.666;23.264;2024-02-04T02:52:47;3.43;;;3.03;;
6344;SDS011;3205;42.666;23.264;2024-02-04T02:55:13;3.70;;;2.90;;
6344;SDS011;3205;42.666;23.264;2024-02-04T02:57:40;4.93;;;3.13;;
6344;SDS011;3205;42.666;23.264;2024-02-04T03:00:08;5.27;;;3.30;;
6344;SDS011;3205;42.666;23.264;2024-02-04T03:02:34;4.17;;;3.20;;
6344;SDS011;3205;42.666;23.264;2024-02-04T03:05:01;5.63;;;3.53;;
6344;SDS011;3205;42.666;23.264;2024-02-04T03:07:27;3.37;;;2.60;;
6344;SDS011;3205;42.666;23.264;2024-02-04T03:09:53;4.37;;;3.33;;
6344;SDS011;3205;42.666;23.264;2024-02-04T03:12:20;6.43;;;3.07;;
6344;SDS011;3205;42.666;23.264;2024-02-04T03:14:46;3.17;;;2.43;;
6344;SDS011;3205;42.666;23.264;2024-02-04T03:17:13;4.90;;;3.40;;
6344;SDS011;3205;42.666;23.264;2024-02-04T03:19:39;3.40;;;2.70;;
6344;SDS011;3205;42.666;23.264;2024-02-04T03:22:06;3.73;;;2.70;;
6344;SDS011;3205;42.666;23.264;2024-02-04T03:24:32;4.03;;;2.70;;
6344;SDS011;3205;42.666;23.264;2024-02-04T03:26:58;4.17;;;2.80;;
6344;SDS011;3205;42.666;23.264;2024-02-04T03:29:24;4.43;;;2.67;;
6344;SDS011;3205;42.666;23.264;2024-02-04T03:31:51;4.20;;;3.40;;
6344;SDS011;3205;42.666;23.264;2024-02-04T03:34:18;4.97;;;2.60;;
6344;SDS011;3205;42.666;23.264;2024-02-04T03:36:44;3.70;;;3.07;;
6344;SDS011;3205;42.666;23.264;2024-02-04T03:39:10;5.07;;;3.03;;
6344;SDS011;3205;42.666;23.264;2024-02-04T03:41:36;3.27;;;2.83;;
6344;SDS011;3205;42.666;23.264;2024-02-04T03:44:03;6.13;;;3.30;;
6344;SDS011;3205;42.666;23.264;2024-02-04T03:46:29;4.00;;;3.10;;
6344;SDS011;3205;42.666;23.264;2024-02-04T03:48:56;5.37;;;3.10;;
6344;SDS011;3205;42.666;23.264;2024-02-04T03:51:23;4.43;;;2.90;;
6344;SDS011;3205;42.666;23.264;2024-02-04T03:53:53;5.67;;;3.57;;
6344;SDS011;3205;42.666;23.264;2024-02-04T03:56:19;6.87;;;3.50;;
6344;SDS011;3205;42.666;23.264;2024-02-04T03:58:46;4.13;;;2.77;;
6344;SDS011;3205;42.666;23.264;2024-02-04T04:01:12;4.00;;;2.70;;
6344;SDS011;3205;42.666;23.264;2024-02-04T04:03:39;4.30;;;3.27;;
6344;SDS011;3205;42.666;23.264;2024-02-04T04:06:05;5.57;;;3.00;;
6344;SDS011;3205;42.666;23.264;2024-02-04T04:08:32;4.80;;;3.33;;
6344;SDS011;3205;42.666;23.264;2024-02-04T04:10:58;3.63;;;2.97;;
6344;SDS011;3205;42.666;23.264;2024-02-04T04:13:24;4.00;;;3.60;;
6344;SDS011;3205;42.666;23.264;2024-02-04T04:15:51;4.47;;;3.00;;
6344;SDS011;3205;42.666;23.264;2024-02-04T04:18:17;5.13;;;3.03;;
6344;SDS011;3205;42.666;23.264;2024-02-04T04:20:43;3.47;;;2.80;;
6344;SDS011;3205;42.666;23.264;2024-02-04T04:23:10;4.60;;;2.60;;
6344;SDS011;3205;42.666;23.264;2024-02-04T04:25:37;3.60;;;3.03;;
6344;SDS011;3205;42.666;23.264;2024-02-04T04:28:03;3.40;;;2.90;;
6344;SDS011;3205;42.666;23.264;2024-02-04T04:30:29;4.27;;;2.40;;
6344;SDS011;3205;42.666;23.264;2024-02-04T04:32:56;3.30;;;2.67;;
6344;SDS011;3205;42.666;23.264;2024-02-04T04:35:24;3.67;;;2.70;;
6344;SDS011;3205;42.666;23.264;2024-02-04T04:37:51;3.67;;;2.87;;
6344;SDS011;3205;42.666;23.264;2024-02-04T04:40:17;3.63;;;2.90;;
6344;SDS011;3205;42.666;23.264;2024-02-04T04:42:44;4.73;;;2.57;;
6344;SDS011;3205;42.666;23.264;2024-02-04T04:45:11;4.03;;;2.47;;
6344;SDS011;3205;42.666;23.264;2024-02-04T04:47:37;2.47;;;2.23;;
6344;SDS011;3205;42.666;23.264;2024-02-04T04:50:04;4.33;;;2.73;;
6344;SDS011;3205;42.666;23.264;2024-02-04T04:52:31;6.03;;;2.47;;
6344;SDS011;3205;42.666;23.264;2024-02-04T04:54:57;3.87;;;2.40;;
6344;SDS011;3205;42.666;23.264;2024-02-04T04:57:24;3.97;;;2.40;;
6344;SDS011;3205;42.666;23.264;2024-02-04T04:59:51;3.50;;;2.20;;
6344;SDS011;3205;42.666;23.264;2024-02-04T05:02:17;2.60;;;2.40;;
6344;SDS011;3205;42.666;23.264;2024-02-04T05:04:43;3.00;;;2.47;;
6344;SDS011;3205;42.666;23.264;2024-02-04T05:07:10;3.30;;;2.37;;
6344;SDS011;3205;42.666;23.264;2024-02-04T05:09:36;3.03;;;2.73;;
6344;SDS011;3205;42.666;23.264;2024-02-04T05:12:03;3.90;;;2.90;;
6344;SDS011;3205;42.666;23.264;2024-02-04T05:14:29;4.07;;;2.33;;
6344;SDS011;3205;42.666;23.264;2024-02-04T05:16:56;4.90;;;2.57;;
6344;SDS011;3205;42.666;23.264;2024-02-04T05:19:22;2.80;;;2.57;;
6344;SDS011;3205;42.666;23.264;2024-02-04T05:21:49;2.90;;;2.63;;
6344;SDS011;3205;42.666;23.264;2024-02-04T05:24:15;3.67;;;2.63;;
6344;SDS011;3205;42.666;23.264;2024-02-04T05:26:41;3.80;;;2.43;;
6344;SDS011;3205;42.666;23.264;2024-02-04T05:29:08;2.37;;;2.17;;
6344;SDS011;3205;42.666;23.264;2024-02-04T05:31:39;2.70;;;2.50;;
6344;SDS011;3205;42.666;23.264;2024-02-04T05:34:07;2.60;;;2.40;;
6344;SDS011;3205;42.666;23.264;2024-02-04T05:36:34;3.33;;;2.43;;
6344;SDS011;3205;42.666;23.264;2024-02-04T05:39:08;2.37;;;1.90;;
6344;SDS011;3205;42.666;23.264;2024-02-04T05:41:35;2.90;;;2.60;;
6344;SDS011;3205;42.666;23.264;2024-02-04T05:44:01;2.60;;;2.37;;
6344;SDS011;3205;42.666;23.264;2024-02-04T05:46:28;2.90;;;2.40;;
6344;SDS011;3205;42.666;23.264;2024-02-04T05:48:54;3.67;;;2.90;;
6344;SDS011;3205;42.666;23.264;2024-02-04T05:51:21;3.03;;;2.57;;
6344;SDS011;3205;42.666;23.264;2024-02-04T05:53:48;2.90;;;2.60;;
6344;SDS011;3205;42.666;23.264;2024-02-04T05:56:14;2.83;;;2.40;;
6344;SDS011;3205;42.666;23.264;2024-02-04T05:58:40;3.80;;;2.60;;
6344;SDS011;3205;42.666;23.264;2024-02-04T06:01:06;4.47;;;2.70;;
6344;SDS011;3205;42.666;23.264;2024-02-04T06:03:33;4.00;;;2.50;;
6344;SDS011;3205;42.666;23.264;2024-02-04T06:05:59;3.27;;;2.60;;
6344;SDS011;3205;42.666;23.264;2024-02-04T06:08:26;3.43;;;2.47;;
6344;SDS011;3205;42.666;23.264;2024-02-04T06:10:52;4.37;;;2.87;;
6344;SDS011;3205;42.666;23.264;2024-02-04T06:13:18;7.17;;;2.63;;
6344;SDS011;3205;42.666;23.264;2024-02-04T06:15:45;4.77;;;2.60;;
6344;SDS011;3205;42.666;23.264;2024-02-04T06:18:11;4.97;;;2.83;;
6344;SDS011;3205;42.666;23.264;2024-02-04T06:20:37;3.30;;;2.60;;
6344;SDS011;3205;42.666;23.264;2024-02-04T06:23:03;3.27;;;2.30;;
6344;SDS011;3205;42.666;23.264;2024-02-04T06:25:30;3.97;;;2.73;;
6344;SDS011;3205;42.666;23.264;2024-02-04T06:27:59;3.67;;;2.70;;
6344;SDS011;3205;42.666;23.264;2024-02-04T06:30:26;5.03;;;2.70;;
6344;SDS011;3205;42.666;23.264;2024-02-04T06:32:52;4.50;;;2.77;;
6344;SDS011;3205;42.666;23.264;2024-02-04T06:35:18;4.67;;;2.60;;
6344;SDS011;3205;42.666;23.264;2024-02-04T06:37:44;3.80;;;2.50;;
6344;SDS011;3205;42.666;23.264;2024-02-04T06:40:11;4.97;;;2.87;;
6344;SDS011;3205;42.666;23.264;2024-02-04T06:42:38;2.97;;;2.50;;
6344;SDS011;3205;42.666;23.264;2024-02-04T06:45:04;2.83;;;2.60;;
6344;SDS011;3205;42.666;23.264;2024-02-04T06:47:31;2.67;;;2.23;;
6344;SDS011;3205;42.666;23.264;2024-02-04T06:49:57;5.40;;;2.77;;
6344;SDS011;3205;42.666;23.264;2024-02-04T06:52:24;3.23;;;2.73;;
6344;SDS011;3205;42.666;23.264;2024-02-04T06:54:50;4.63;;;2.10;;
6344;SDS011;3205;42.666;23.264;2024-02-04T06:57:16;4.97;;;2.33;;
6344;SDS011;3205;42.666;23.264;2024-02-04T06:59:43;2.70;;;2.30;;
6344;SDS011;3205;42.666;23.264;2024-02-04T07:02:09;2.60;;;2.40;;
6344;SDS011;3205;42.666;23.264;2024-02-04T07:04:36;4.67;;;2.20;;
6344;SDS011;3205;42.666;23.264;2024-02-04T07:07:02;2.20;;;2.00;;
6344;SDS011;3205;42.666;23.264;2024-02-04T07:09:28;3.00;;;2.47;;
6344;SDS011;3205;42.666;23.264;2024-02-04T07:11:55;3.73;;;2.50;;
6344;SDS011;3205;42.666;23.264;2024-02-04T07:14:21;2.87;;;2.20;;
6344;SDS011;3205;42.666;23.264;2024-02-04T07:16:48;2.87;;;2.27;;
6344;SDS011;3205;42.666;23.264;2024-02-04T07:19:14;3.87;;;2.40;;
6344;SDS011;3205;42.666;23.264;2024-02-04T07:21:40;7.60;;;2.93;;
6344;SDS011;3205;42.666;23.264;2024-02-04T07:24:07;5.20;;;2.23;;
6344;SDS011;3205;42.666;23.264;2024-02-04T07:26:33;3.30;;;2.30;;
6344;SDS011;3205;42.666;23.264;2024-02-04T07:28:59;3.93;;;2.37;;
6344;SDS011;3205;42.666;23.264;2024-02-04T07:31:25;4.77;;;3.03;;
6344;SDS011;3205;42.666;23.264;2024-02-04T07:33:52;5.30;;;3.30;;
6344;SDS011;3205;42.666;23.264;2024-02-04T07:36:19;3.57;;;3.13;;
6344;SDS011;3205;42.666;23.264;2024-02-04T07:38:45;6.10;;;3.33;;
6344;SDS011;3205;42.666;23.264;2024-02-04T07:41:13;3.03;;;2.60;;
6344;SDS011;3205;42.666;23.264;2024-02-04T07:43:40;12.30;;;3.40;;
6344;SDS011;3205;42.666;23.264;2024-02-04T07:46:07;6.07;;;2.63;;
6344;SDS011;3205;42.666;23.264;2024-02-04T07:48:34;3.10;;;2.10;;
6344;SDS011;3205;42.666;23.264;2024-02-04T07:51:00;5.20;;;2.80;;
6344;SDS011;3205;42.666;23.264;2024-02-04T07:53:27;3.63;;;2.70;;
6344;SDS011;3205;42.666;23.264;2024-02-04T07:55:54;5.33;;;2.83;;
6344;SDS011;3205;42.666;23.264;2024-02-04T07:58:20;3.67;;;2.60;;
6344;SDS011;3205;42.666;23.264;2024-02-04T08:00:46;4.53;;;2.43;;
6344;SDS011;3205;42.666;23.264;2024-02-04T08:03:13;4.83;;;2.70;;
6344;SDS011;3205;42.666;23.264;2024-02-04T08:05:39;4.40;;;2.73;;
6344;SDS011;3205;42.666;23.264;2024-02-04T08:08:08;6.07;;;2.50;;
6344;SDS011;3205;42.666;23.264;2024-02-04T08:10:34;8.73;;;3.60;;
6344;SDS011;3205;42.666;23.264;2024-02-04T08:13:01;4.23;;;3.23;;
6344;SDS011;3205;42.666;23.264;2024-02-04T08:15:29;5.23;;;3.03;;
6344;SDS011;3205;42.666;23.264;2024-02-04T08:17:55;5.10;;;3.00;;
6344;SDS011;3205;42.666;23.264;2024-02-04T08:20:21;5.57;;;2.30;;
6344;SDS011;3205;42.666;23.264;2024-02-04T08:22:48;4.03;;;2.47;;
6344;SDS011;3205;42.666;23.264;2024-02-04T08:25:15;3.28;;;2.60;;
6344;SDS011;3205;42.666;23.264;2024-02-04T08:27:41;2.25;;;2.00;;
6344;SDS011;3205;42.666;23.264;2024-02-04T08:30:08;3.88;;;2.28;;
6344;SDS011;3205;42.666;23.264;2024-02-04T08:32:36;2.03;;;1.70;;
6344;SDS011;3205;42.666;23.264;2024-02-04T08:35:03;2.00;;;1.50;;
6344;SDS011;3205;42.666;23.264;2024-02-04T08:37:30;2.38;;;1.45;;
6344;SDS011;3205;42.666;23.264;2024-02-04T08:39:58;3.20;;;1.45;;
6344;SDS011;3205;42.666;23.264;2024-02-04T08:42:28;3.38;;;2.10;;
6344;SDS011;3205;42.666;23.264;2024-02-04T08:44:54;7.07;;;2.88;;
6344;SDS011;3205;42.666;23.264;2024-02-04T08:47:21;6.80;;;1.90;;
6344;SDS011;3205;42.666;23.264;2024-02-04T08:49:47;5.07;;;2.03;;
6344;SDS011;3205;42.666;23.264;2024-02-04T08:52:13;9.50;;;1.83;;
6344;SDS011;3205;42.666;23.264;2024-02-04T08:54:40;4.27;;;2.37;;
6344;SDS011;3205;42.666;23.264;2024-02-04T08:57:06;4.83;;;1.80;;
6344;SDS011;3205;42.666;23.264;2024-02-04T08:59:33;2.90;;;1.80;;
6344;SDS011;3205;42.666;23.264;2024-02-04T09:01:59;1.90;;;1.60;;
6344;SDS011;3205;42.666;23.264;2024-02-04T09:04:26;7.63;;;1.80;;
6344;SDS011;3205;42.666;23.264;2024-02-04T09:06:52;3.07;;;1.90;;
6344;SDS011;3205;42.666;23.264;2024-02-04T09:09:18;4.23;;;1.80;;
6344;SDS011;3205;42.666;23.264;2024-02-04T09:11:44;2.80;;;1.80;;
6344;SDS011;3205;42.666;23.264;2024-02-04T09:14:11;5.13;;;1.73;;
6344;SDS011;3205;42.666;23.264;2024-02-04T09:16:38;5.10;;;2.00;;
6344;SDS011;3205;42.666;23.264;2024-02-04T09:19:04;2.87;;;1.70;;
6344;SDS011;3205;42.666;23.264;2024-02-04T09:21:30;3.00;;;1.93;;
6344;SDS011;3205;42.666;23.264;2024-02-04T09:23:57;2.13;;;1.50;;
6344;SDS011;3205;42.666;23.264;2024-02-04T09:26:23;4.83;;;2.00;;
6344;SDS011;3205;42.666;23.264;2024-02-04T09:28:49;2.00;;;1.70;;
6344;SDS011;3205;42.666;23.264;2024-02-04T09:31:15;2.00;;;1.80;;
6344;SDS011;3205;42.666;23.264;2024-02-04T09:33:42;3.27;;;1.97;;
6344;SDS011;3205;42.666;23.264;2024-02-04T09:36:09;6.10;;;2.40;;
6344;SDS011;3205;42.666;23.264;2024-02-04T09:38:35;6.00;;;2.30;;
6344;SDS011;3205;42.666;23.264;2024-02-04T09:41:01;4.57;;;2.17;;
6344;SDS011;3205;42.666;23.264;2024-02-04T09:43:29;2.70;;;2.03;;
6344;SDS011;3205;42.666;23.264;2024-02-04T09:45:58;5.17;;;2.30;;
6344;SDS011;3205;42.666;23.264;2024-02-04T09:48:25;2.90;;;2.60;;
6344;SDS011;3205;42.666;23.264;2024-02-04T09:50:53;2.70;;;2.23;;
6344;SDS011;3205;42.666;23.264;2024-02-04T09:53:21;2.43;;;2.20;;
6344;SDS011;3205;42.666;23.264;2024-02-04T09:55:54;5.43;;;2.63;;
6344;SDS011;3205;42.666;23.264;2024-02-04T09:58:22;6.47;;;2.60;;
6344;SDS011;3205;42.666;23.264;2024-02-04T10:00:48;6.23;;;2.53;;
6344;SDS011;3205;42.666;23.264;2024-02-04T10:03:17;3.30;;;2.87;;
6344;SDS011;3205;42.666;23.264;2024-02-04T10:05:44;9.00;;;3.30;;
6344;SDS011;3205;42.666;23.264;2024-02-04T10:08:11;6.80;;;4.00;;
6344;SDS011;3205;42.666;23.264;2024-02-04T10:10:37;6.00;;;3.87;;
6344;SDS011;3205;42.666;23.264;2024-02-04T10:13:05;4.67;;;2.87;;
6344;SDS011;3205;42.666;23.264;2024-02-04T10:15:32;6.93;;;3.20;;
6344;SDS011;3205;42.666;23.264;2024-02-04T10:17:59;6.07;;;3.13;;
6344;SDS011;3205;42.666;23.264;2024-02-04T10:20:28;8.57;;;3.20;;
6344;SDS011;3205;42.666;23.264;2024-02-04T10:22:54;3.53;;;2.80;;
6344;SDS011;3205;42.666;23.264;2024-02-04T10:25:21;4.53;;;2.70;;
6344;SDS011;3205;42.666;23.264;2024-02-04T10:30:33;3.10;;;2.07;;
6344;SDS011;3205;42.666;23.264;2024-02-04T10:32:59;7.20;;;1.97;;
6344;SDS011;3205;42.666;23.264;2024-02-04T10:35:26;13.53;;;2.50;;
6344;SDS011;3205;42.666;23.264;2024-02-04T10:37:53;3.73;;;2.23;;
6344;SDS011;3205;42.666;23.264;2024-02-04T10:40:20;2.67;;;2.40;;
6344;SDS011;3205;42.666;23.264;2024-02-04T10:42:47;4.17;;;2.30;;
6344;SDS011;3205;42.666;23.264;2024-02-04T10:45:17;5.97;;;2.43;;
6344;SDS011;3205;42.666;23.264;2024-02-04T10:47:46;3.13;;;2.00;;
6344;SDS011;3205;42.666;23.264;2024-02-04T10:50:21;9.57;;;2.10;;
6344;SDS011;3205;42.666;23.264;2024-02-04T10:52:49;12.03;;;2.53;;
6344;SDS011;3205;42.666;23.264;2024-02-04T10:55:16;3.50;;;1.70;;
6344;SDS011;3205;42.666;23.264;2024-02-04T10:57:49;1.60;;;1.50;;
6344;SDS011;3205;42.666;23.264;2024-02-04T11:00:16;3.63;;;1.43;;
6344;SDS011;3205;42.666;23.264;2024-02-04T11:02:45;7.90;;;2.07;;
6344;SDS011;3205;42.666;23.264;2024-02-04T11:05:14;7.90;;;1.90;;
6344;SDS011;3205;42.666;23.264;2024-02-04T11:07:42;2.37;;;2.17;;
6344;SDS011;3205;42.666;23.264;2024-02-04T11:10:09;4.40;;;2.17;;
6344;SDS011;3205;42.666;23.264;2024-02-04T11:12:36;8.73;;;2.37;;
6344;SDS011;3205;42.666;23.264;2024-02-04T11:15:07;3.47;;;2.40;;
6344;SDS011;3205;42.666;23.264;2024-02-04T11:17:41;3.37;;;2.03;;
6344;SDS011;3205;42.666;23.264;2024-02-04T11:20:24;4.03;;;2.30;;
6344;SDS011;3205;42.666;23.264;2024-02-04T11:23:03;3.10;;;2.60;;
6344;SDS011;3205;42.666;23.264;2024-02-04T11:25:47;8.70;;;2.30;;
6344;SDS011;3205;42.666;23.264;2024-02-04T11:28:16;5.93;;;2.20;;
6344;SDS011;3205;42.666;23.264;2024-02-04T11:30:45;5.83;;;2.90;;
6344;SDS011;3205;42.666;23.264;2024-02-04T11:33:13;3.43;;;2.03;;
6344;SDS011;3205;42.666;23.264;2024-02-04T11:35:43;3.30;;;2.60;;
6344;SDS011;3205;42.666;23.264;2024-02-04T11:38:10;4.87;;;2.63;;
6344;SDS011;3205;42.666;23.264;2024-02-04T11:40:39;4.23;;;2.30;;
6344;SDS011;3205;42.666;23.264;2024-02-04T11:43:05;6.87;;;2.00;;
6344;SDS011;3205;42.666;23.264;2024-02-04T11:45:32;4.10;;;1.67;;
6344;SDS011;3205;42.666;23.264;2024-02-04T11:48:06;3.90;;;1.67;;
6344;SDS011;3205;42.666;23.264;2024-02-04T11:50:32;3.60;;;1.90;;
6344;SDS011;3205;42.666;23.264;2024-02-04T11:53:06;3.57;;;2.00;;
6344;SDS011;3205;42.666;23.264;2024-02-04T11:55:34;2.07;;;1.60;;
6344;SDS011;3205;42.666;23.264;2024-02-04T11:58:01;4.30;;;2.10;;
6344;SDS011;3205;42.666;23.264;2024-02-04T12:00:31;2.70;;;2.00;;
6344;SDS011;3205;42.666;23.264;2024-02-04T12:03:01;4.07;;;2.30;;
6344;SDS011;3205;42.666;23.264;2024-02-04T12:05:30;2.70;;;2.10;;
6344;SDS011;3205;42.666;23.264;2024-02-04T12:07:57;4.13;;;2.00;;
6344;SDS011;3205;42.666;23.264;2024-02-04T12:10:25;4.30;;;1.80;;
6344;SDS011;3205;42.666;23.264;2024-02-04T12:12:52;2.10;;;1.97;;
6344;SDS011;3205;42.666;23.264;2024-02-04T12:15:18;1.77;;;1.60;;
6344;SDS011;3205;42.666;23.264;2024-02-04T12:17:45;1.80;;;1.63;;
6344;SDS011;3205;42.666;23.264;2024-02-04T12:20:12;1.70;;;1.60;;
6344;SDS011;3205;42.666;23.264;2024-02-04T12:22:39;1.70;;;1.60;;
6344;SDS011;3205;42.666;23.264;2024-02-04T12:25:05;2.33;;;1.63;;
6344;SDS011;3205;42.666;23.264;2024-02-04T12:27:32;1.70;;;1.57;;
6344;SDS011;3205;42.666;23.264;2024-02-04T12:29:59;4.97;;;1.70;;
6344;SDS011;3205;42.666;23.264;2024-02-04T12:32:26;2.37;;;1.90;;
6344;SDS011;3205;42.666;23.264;2024-02-04T12:34:53;3.63;;;2.13;;
6344;SDS011;3205;42.666;23.264;2024-02-04T12:37:21;3.20;;;1.70;;
6344;SDS011;3205;42.666;23.264;2024-02-04T12:39:48;1.77;;;1.67;;
6344;SDS011;3205;42.666;23.264;2024-02-04T12:42:15;2.77;;;1.63;;
6344;SDS011;3205;42.666;23.264;2024-02-04T12:44:45;5.13;;;2.00;;
6344;SDS011;3205;42.666;23.264;2024-02-04T12:47:12;6.17;;;1.70;;
6344;SDS011;3205;42.666;23.264;2024-02-04T12:49:39;3.40;;;2.03;;
6344;SDS011;3205;42.666;23.264;2024-02-04T12:52:06;2.23;;;1.83;;
6344;SDS011;3205;42.666;23.264;2024-02-04T12:54:39;3.07;;;1.73;;
6344;SDS011;3205;42.666;23.264;2024-02-04T12:57:08;1.70;;;1.60;;
6344;SDS011;3205;42.666;23.264;2024-02-04T12:59:36;3.00;;;2.00;;
6344;SDS011;3205;42.666;23.264;2024-02-04T13:02:02;5.67;;;2.10;;
6344;SDS011;3205;42.666;23.264;2024-02-04T13:04:33;3.30;;;1.90;;
6344;SDS011;3205;42.666;23.264;2024-02-04T13:07:00;4.50;;;2.00;;
6344;SDS011;3205;42.666;23.264;2024-02-04T13:09:26;2.27;;;1.90;;
6344;SDS011;3205;42.666;23.264;2024-02-04T13:11:52;3.13;;;1.93;;
6344;SDS011;3205;42.666;23.264;2024-02-04T13:14:29;1.97;;;1.77;;
6344;SDS011;3205;42.666;23.264;2024-02-04T13:16:56;3.80;;;2.50;;
6344;SDS011;3205;42.666;23.264;2024-02-04T13:19:23;6.47;;;2.43;;
6344;SDS011;3205;42.666;23.264;2024-02-04T13:21:49;1.73;;;1.63;;
6344;SDS011;3205;42.666;23.264;2024-02-04T13:24:15;2.10;;;1.90;;
6344;SDS011;3205;42.666;23.264;2024-02-04T13:26:41;2.17;;;1.97;;
6344;SDS011;3205;42.666;23.264;2024-02-04T13:29:08;2.40;;;1.80;;
6344;SDS011;3205;42.666;23.264;2024-02-04T13:31:35;3.57;;;1.93;;
6344;SDS011;3205;42.666;23.264;2024-02-04T13:34:01;3.40;;;1.83;;
6344;SDS011;3205;42.666;23.264;2024-02-04T13:36:29;1.93;;;1.77;;
6344;SDS011;3205;42.666;23.264;2024-02-04T13:38:59;2.47;;;2.27;;
6344;SDS011;3205;42.666;23.264;2024-02-04T13:41:26;3.07;;;2.20;;
6344;SDS011;3205;42.666;23.264;2024-02-04T13:43:52;4.70;;;2.60;;
6344;SDS011;3205;42.666;23.264;2024-02-04T13:46:18;2.53;;;2.33;;
6344;SDS011;3205;42.666;23.264;2024-02-04T13:48:45;9.67;;;2.07;;
6344;SDS011;3205;42.666;23.264;2024-02-04T13:51:12;7.37;;;2.80;;
6344;SDS011;3205;42.666;23.264;2024-02-04T13:53:38;5.43;;;2.20;;
6344;SDS011;3205;42.666;23.264;2024-02-04T13:56:04;5.03;;;2.73;;
6344;SDS011;3205;42.666;23.264;2024-02-04T13:58:31;5.70;;;2.23;;
6344;SDS011;3205;42.666;23.264;2024-02-04T14:00:57;4.83;;;2.33;;
6344;SDS011;3205;42.666;23.264;2024-02-04T14:03:24;9.10;;;3.50;;
6344;SDS011;3205;42.666;23.264;2024-02-04T14:05:51;6.03;;;3.20;;
6344;SDS011;3205;42.666;23.264;2024-02-04T14:08:20;8.43;;;3.27;;
6344;SDS011;3205;42.666;23.264;2024-02-04T14:10:46;6.87;;;3.60;;
6344;SDS011;3205;42.666;23.264;2024-02-04T14:13:12;6.67;;;3.47;;
6344;SDS011;3205;42.666;23.264;2024-02-04T14:15:39;7.00;;;3.30;;
6344;SDS011;3205;42.666;23.264;2024-02-04T14:18:05;6.37;;;3.10;;
6344;SDS011;3205;42.666;23.264;2024-02-04T14:20:31;4.73;;;3.67;;
6344;SDS011;3205;42.666;23.264;2024-02-04T14:22:58;8.40;;;3.80;;
6344;SDS011;3205;42.666;23.264;2024-02-04T14:25:25;9.43;;;3.07;;
6344;SDS011;3205;42.666;23.264;2024-02-04T14:27:51;8.77;;;3.10;;
6344;SDS011;3205;42.666;23.264;2024-02-04T14:30:17;3.87;;;2.90;;
6344;SDS011;3205;42.666;23.264;2024-02-04T14:32:44;5.30;;;2.43;;
6344;SDS011;3205;42.666;23.264;2024-02-04T14:35:11;3.47;;;2.47;;
6344;SDS011;3205;42.666;23.264;2024-02-04T14:37:37;3.20;;;2.40;;
6344;SDS011;3205;42.666;23.264;2024-02-04T14:40:06;3.30;;;2.53;;
6344;SDS011;3205;42.666;23.264;2024-02-04T14:42:33;6.33;;;2.70;;
6344;SDS011;3205;42.666;23.264;2024-02-04T14:44:59;6.37;;;2.77;;
6344;SDS011;3205;42.666;23.264;2024-02-04T14:47:26;2.80;;;2.47;;
6344;SDS011;3205;42.666;23.264;2024-02-04T14:49:52;6.73;;;3.50;;
6344;SDS011;3205;42.666;23.264;2024-02-04T14:52:19;7.77;;;2.57;;
6344;SDS011;3205;42.666;23.264;2024-02-04T14:54:45;5.43;;;2.33;;
6344;SDS011;3205;42.666;23.264;2024-02-04T14:57:12;4.20;;;2.13;;
6344;SDS011;3205;42.666;23.264;2024-02-04T14:59:39;4.67;;;2.43;;
6344;SDS011;3205;42.666;23.264;2024-02-04T15:02:05;3.50;;;2.27;;